Aérodrome de Graulhet-Montdragon

METAR LFCK TAF LFCK
3 °C
°C
-
°C
25m
Alter
22:54:41
LT
21:54
UTC
0 ft

1.000

2.000

3.000

4.000

5.000

BKN 1.200
BKN 3.000
OVC 3.900
MVFR
<?= Yii::t('app', 'Wind direction') ?> <?= Yii::t('app', 'of'); ?>
290°
08:12
Sonne auf
93%
Luftfeuchtigkeit
Windscherung
Geschlossen/Schnee
RWY-Sichtweite
RWY Zustand
Vert. Sichtweite
Min. Sichtbarkeit
CAVOK
Trend
Korrektur
Besonderer Bericht
1020 hPa
QNH
METAR LFCK 272130Z AUTO 29010KT 9999 BKN012 BKN030 OVC039 03/02 Q1020 BECMG SCT008 OVC020
Himmel bedeckt
2 kt
2 kt
22:00
IFR
14 kt
23:00
MVFR
14 kt
00:00
MVFR
14 kt
01:00
MVFR
14 kt
02:00
MVFR
14 kt
03:00
MVFR
14 kt
10 km+
Sichtweite
1.200 ft
Wolkendecke
10 kt
Wind
metar-taf.com/LFCQ

Metar-Taf.com

Visueller Decoder

Wir und Dritte verfolgen dein Internetverhalten auf unserer Website mit Cookies. Wenn du fortfährst, gehen wir davon aus, dass du mit unserer Cookie-Richtlinie einverstanden bist.